Portland — WDG2201 — position and weather

sailwx.info

Track history (hours):
 
Tides and Currents Weather Stations Pressure Air Temp Water Temp Dewpoint Dewpoint Depression Visibility Wind Speed Wind Dir Waves Ship Positions

Portland

Owner: Shaver Transportation Company, Portland, OR. More information available from US FCC via Universal Licensing System and Coast Guard Vessel Documentation Center.

Last reported at 2016-Aug-28 18:33 UTC. Time now 2016-Aug-28 19:00 UTC.
Position N 45°39' W 122°45'.

Length 27 m; draft 4 m.

Type: Towing. MMSI: 367315814.

Date/timePositionNaut miles runAvg speedWind from/ knotsBaromVisibWave heightAir tempDewpointWater temp
2016-Aug-28 18:33N 45°39' W 122°45'0 0.0
2016-Aug-28 17:33N 45°39' W 122°45'0 0.0
2016-Aug-28 16:34N 45°39' W 122°45'0 0.0
2016-Aug-28 15:33N 45°39' W 122°45'0 0.0
2016-Aug-28 14:33N 45°39' W 122°45'0 0.0
2016-Aug-28 13:33N 45°39' W 122°45'0 0.0
2016-Aug-28 12:33N 45°39' W 122°45'0 0.0
2016-Aug-28 11:33N 45°39' W 122°45'0 0.0
2016-Aug-28 10:33N 45°39' W 122°45'0 0.0
2016-Aug-28 09:33N 45°39' W 122°45'0 0.0
2016-Aug-28 08:33N 45°39' W 122°45'0 0.0
2016-Aug-28 07:33N 45°39' W 122°45'0 0.0
2016-Aug-28 06:33N 45°39' W 122°45'5 5.4
2016-Aug-28 05:34N 45°44' W 122°46'7 6.9
2016-Aug-28 04:33N 45°51' W 122°47'5 5.3
2016-Aug-28 03:33N 45°56' W 122°48'6 6.4
2016-Aug-28 02:33N 46°02' W 122°53'4 4.0
2016-Aug-28 01:33N 46°05' W 122°55'0 0.4
2016-Aug-28 00:33N 46°05' W 122°56'0 0.0
2016-Aug-27 23:33N 46°05' W 122°56'1 1.1
2016-Aug-27 22:34N 46°06' W 122°57'10 9.6
2016-Aug-27 21:33N 46°11' W 123°09'9 9.2
2016-Aug-27 20:33N 46°09' W 123°22'9 8.9
2016-Aug-27 19:34N 46°16' W 123°28'1010.1
2016-Aug-27 18:33N 46°14' W 123°43'7 6.8
2016-Aug-27 17:33N 46°12' W 123°52'0 0.3
2016-Aug-27 16:33N 46°11' W 123°52'0 0.0
2016-Aug-27 15:33N 46°11' W 123°52'0 0.2
2016-Aug-27 14:33N 46°11' W 123°52'7 6.6
2016-Aug-27 13:33N 46°14' W 123°43'1111.4
2016-Aug-27 12:33N 46°15' W 123°27'10 9.8
2016-Aug-27 11:33N 46°10' W 123°15'1111.4
2016-Aug-27 10:33N 46°07' W 122°59'7 6.5
2016-Aug-27 09:33N 46°02' W 122°53'1 0.6
2016-Aug-27 08:33N 46°01' W 122°52'3 2.6
2016-Aug-27 07:31N 45°59' W 122°50'0 0.1
2016-Aug-27 06:30N 45°59' W 122°50'3 1.5
2016-Aug-27 04:33N 46°02' W 122°52'5 4.4
2016-Aug-27 03:31N 46°05' W 122°56'0 0.0
2016-Aug-27 02:28N 46°05' W 122°56'0 0.0
2016-Aug-27 01:31N 46°05' W 122°56'4 4.1
2016-Aug-27 00:34N 46°02' W 122°53'1 0.6
2016-Aug-26 23:33N 46°02' W 122°52'0 0.2
2016-Aug-26 22:33N 46°02' W 122°52'5 4.6
2016-Aug-26 21:33N 46°05' W 122°56'0 0.0
2016-Aug-26 20:33N 46°05' W 122°56'0 0.0
2016-Aug-26 19:33N 46°05' W 122°56'0 0.0
2016-Aug-26 18:33N 46°05' W 122°56'0 0.0
2016-Aug-26 17:33N 46°05' W 122°56'0 0.0
2016-Aug-26 16:33N 46°05' W 122°56'0 0.0
2016-Aug-26 15:33N 46°05' W 122°56'0 0.0
2016-Aug-26 14:33N 46°05' W 122°56'0 0.0
2016-Aug-26 13:33N 46°05' W 122°56'0 0.0
2016-Aug-26 12:33N 46°05' W 122°56'0 0.0
2016-Aug-26 11:34N 46°05' W 122°56'0 0.0
2016-Aug-26 10:33N 46°05' W 122°56'0 0.0
2016-Aug-26 09:33N 46°05' W 122°56'0 0.0
2016-Aug-26 08:34N 46°05' W 122°56'0 0.0
2016-Aug-26 07:33N 46°05' W 122°56'0 0.0
2016-Aug-26 06:33N 46°05' W 122°56'0 0.0
2016-Aug-26 04:33N 46°05' W 122°56'0 0.0
2016-Aug-26 03:33N 46°05' W 122°56'0 0.0
2016-Aug-26 02:33N 46°05' W 122°56'0 0.0
2016-Aug-26 01:33N 46°05' W 122°56'0 0.0
2016-Aug-26 00:34N 46°05' W 122°56'0 0.0
2016-Aug-25 23:33N 46°05' W 122°56'0 0.0
2016-Aug-25 22:33N 46°05' W 122°56'0 0.0
2016-Aug-25 21:34N 46°05' W 122°56'0 0.0
2016-Aug-25 20:34N 46°05' W 122°56'0 0.0
2016-Aug-25 19:33N 46°05' W 122°56'1 1.1
2016-Aug-25 18:34N 46°06' W 122°57'0 0.0
2016-Aug-25 17:33N 46°06' W 122°57'1 1.0
2016-Aug-25 16:33N 46°05' W 122°56'4 4.4
2016-Aug-25 15:33N 46°02' W 122°53'0 0.0
2016-Aug-25 14:33N 46°02' W 122°53'0 0.1
2016-Aug-25 13:33N 46°02' W 122°52'1 0.8
2016-Aug-25 12:33N 46°02' W 122°53'1 0.7
2016-Aug-25 11:34N 46°02' W 122°53'5 4.8
2016-Aug-25 10:33N 46°06' W 122°56'0 0.3
2016-Aug-25 09:33N 46°06' W 122°57'0 0.2
2016-Aug-25 08:34N 46°06' W 122°56'3 3.0
2016-Aug-25 07:34N 46°04' W 122°53'2 2.2
2016-Aug-25 06:33N 46°02' W 122°52'0 0.0
2016-Aug-25 04:33N 46°02' W 122°52'0 0.3
2016-Aug-25 03:34N 46°02' W 122°53'1 1.4
2016-Aug-25 02:33N 46°01' W 122°51'2 1.8
2016-Aug-25 01:34N 45°59' W 122°50'0 0.2
2016-Aug-25 00:33N 45°59' W 122°50'0 0.1
2016-Aug-24 23:33N 45°59' W 122°50'0 0.1
2016-Aug-24 22:33N 45°59' W 122°50'4 4.1
2016-Aug-24 21:34N 45°55' W 122°48'1313.2
2016-Aug-24 20:33N 45°42' W 122°46'8 8.5
2016-Aug-24 19:33N 45°34' W 122°44'0 0.0
2016-Aug-24 18:33N 45°34' W 122°44'0 0.0
2016-Aug-24 17:33N 45°34' W 122°44'0 0.0
2016-Aug-24 16:33N 45°34' W 122°44'5 4.6
2016-Aug-24 15:33N 45°38' W 122°43'1 0.5
2016-Aug-24 14:33N 45°39' W 122°43'5 4.6
2016-Aug-24 13:33N 45°34' W 122°44'0 0.4
2016-Aug-24 12:33N 45°34' W 122°44'4 3.7
2016-Aug-24 11:33N 45°36' W 122°47'9 8.5
2016-Aug-24 10:33N 45°45' W 122°46'8 8.3
2016-Aug-24 09:33N 45°53' W 122°48'9 9.3
2016-Aug-24 08:33N 46°02' W 122°53'5 5.4
2016-Aug-24 07:33N 46°06' W 122°57'1 0.7
2016-Aug-24 06:33N 46°06' W 122°58'2 0.9
2016-Aug-24 04:33N 46°05' W 122°56'0 0.0
2016-Aug-24 03:33N 46°05' W 122°56'0 0.0
2016-Aug-24 02:33N 46°05' W 122°56'0 0.0
2016-Aug-24 01:33N 46°05' W 122°56'0 0.0
2016-Aug-24 00:32N 46°05' W 122°56'0 0.0
2016-Aug-23 23:33N 46°05' W 122°56'0 0.0
2016-Aug-23 22:33N 46°05' W 122°56'0 0.0
2016-Aug-23 21:33N 46°05' W 122°56'2 1.7
2016-Aug-23 20:33N 46°07' W 122°58'0 0.0
2016-Aug-23 19:33N 46°07' W 122°58'0 0.0
2016-Aug-23 18:33N 46°07' W 122°58'1 1.2
2016-Aug-23 17:33N 46°06' W 122°56'1 0.5
2016-Aug-23 16:32N 46°05' W 122°56'0 0.0
2016-Aug-23 15:26N 46°05' W 122°56'0 0.0
2016-Aug-23 14:26N 46°05' W 122°56'0 0.0
2016-Aug-23 13:32N 46°05' W 122°56'0 0.0
2016-Aug-23 12:32N 46°05' W 122°56'0 0.0
2016-Aug-23 11:32N 46°05' W 122°56'0 0.0
2016-Aug-23 10:32N 46°05' W 122°56'1 0.5
2016-Aug-23 09:33N 46°06' W 122°57'3 2.8
2016-Aug-23 08:33N 46°08' W 122°59'3 3.3
2016-Aug-23 07:33N 46°05' W 122°56'0 0.0
2016-Aug-23 06:32N 46°05' W 122°56'0 0.0
2016-Aug-23 05:29N 46°05' W 122°56'1 0.6
2016-Aug-23 04:33N 46°05' W 122°55'1211.9
2016-Aug-23 03:33N 45°54' W 122°49'1212.1
2016-Aug-23 02:34N 45°42' W 122°46'3 3.2
2016-Aug-23 01:33N 45°39' W 122°45'3 2.9
2016-Aug-23 00:33N 45°38' W 122°42'3 2.5
2016-Aug-22 23:31N 45°39' W 122°45'0 0.0
2016-Aug-22 22:28N 45°39' W 122°45'2 1.7
2016-Aug-22 21:33N 45°38' W 122°43'8 7.9
2016-Aug-22 20:33N 45°46' W 122°46'9 9.2
2016-Aug-22 19:33N 45°55' W 122°49'10 9.9
2016-Aug-22 18:33N 46°04' W 122°53'2 2.1
2016-Aug-22 17:34N 46°05' W 122°56'0 0.0
2016-Aug-22 16:34N 46°05' W 122°56'0 0.0
2016-Aug-22 15:34N 46°05' W 122°56'0 0.0
2016-Aug-22 14:34N 46°05' W 122°56'0 0.0
2016-Aug-22 13:34N 46°05' W 122°56'2 1.8
2016-Aug-22 12:34N 46°05' W 122°54'2 2.0
2016-Aug-22 11:33N 46°03' W 122°53'4 3.7
2016-Aug-22 10:33N 46°05' W 122°56'0 0.0
2016-Aug-22 09:33N 46°05' W 122°56'0 0.0
2016-Aug-22 08:34N 46°05' W 122°56'0 0.0
2016-Aug-22 07:34N 46°05' W 122°56'0 0.0
2016-Aug-22 06:34N 46°05' W 122°56'0 0.0
2016-Aug-22 05:33N 46°05' W 122°56'0 0.0
2016-Aug-22 04:34N 46°05' W 122°56'0 0.0
2016-Aug-22 03:34N 46°05' W 122°56'0 0.0
2016-Aug-22 02:33N 46°05' W 122°56'0 0.0
2016-Aug-22 01:34N 46°05' W 122°56'0 0.0
2016-Aug-22 00:34N 46°05' W 122°56'0 0.0
2016-Aug-21 23:33N 46°05' W 122°56'0 0.0
2016-Aug-21 22:34N 46°05' W 122°56'0 0.0
2016-Aug-21 21:34N 46°05' W 122°56'0 0.0
2016-Aug-21 20:34N 46°05' W 122°56'0 0.0
2016-Aug-21 19:34N 46°05' W 122°56'0 0.0
2016-Aug-21 18:34N 46°05' W 122°56'1 1.5
2016-Aug-21 17:34N 46°06' W 122°58'1 1.4
2016-Aug-21 16:31N 46°05' W 122°56'0 0.0
2016-Aug-21 15:28N 46°05' W 122°56'0 0.0
2016-Aug-21 14:28N 46°05' W 122°56'0 0.0
2016-Aug-21 13:28N 46°05' W 122°56'0 0.0
2016-Aug-21 12:31N 46°05' W 122°56'0 0.0
2016-Aug-21 11:31N 46°05' W 122°56'0 0.0
2016-Aug-21 10:28N 46°05' W 122°56'0 0.0
2016-Aug-21 09:28N 46°05' W 122°56'0 0.3
2016-Aug-21 08:33N 46°06' W 122°56'1 0.7
2016-Aug-21 07:33N 46°06' W 122°57'1 0.9
2016-Aug-21 06:31N 46°05' W 122°56'0 0.0
2016-Aug-21 05:31N 46°05' W 122°56'0 0.0
2016-Aug-21 04:31N 46°05' W 122°56'0 0.0
2016-Aug-21 03:31N 46°05' W 122°56'0 0.0
2016-Aug-21 02:31N 46°05' W 122°56'0 0.0
2016-Aug-21 01:31N 46°05' W 122°56'0 0.0
2016-Aug-21 00:31N 46°05' W 122°56'0 0.0
2016-Aug-20 23:31N 46°05' W 122°56'1 1.1
2016-Aug-20 22:32N 46°06' W 122°57'1 1.1
2016-Aug-20 21:33N 46°05' W 122°56'0 0.0
2016-Aug-20 20:33N 46°05' W 122°56'2 2.0
2016-Aug-20 19:30N 46°07' W 122°58'2 2.1
2016-Aug-20 18:31N 46°05' W 122°56'0 0.0
2016-Aug-20 17:25N 46°05' W 122°56'0 0.0
2016-Aug-20 16:31N 46°05' W 122°56'0 0.0
2016-Aug-20 15:28N 46°05' W 122°56'0 0.0
2016-Aug-20 14:28N 46°05' W 122°56'0 0.0
2016-Aug-20 13:31N 46°05' W 122°56'0 0.0
2016-Aug-20 12:28N 46°05' W 122°56'0 0.0
2016-Aug-20 11:22N 46°05' W 122°56'1 1.3
2016-Aug-20 10:34N 46°06' W 122°57'1 1.0
2016-Aug-20 09:34N 46°07' W 122°58'0 0.0
2016-Aug-20 08:33N 46°07' W 122°58'1 0.7
2016-Aug-20 07:33N 46°07' W 122°59'3 2.7
2016-Aug-20 06:31N 46°05' W 122°56'0 0.0
2016-Aug-20 05:31N 46°05' W 122°56'0 0.0
2016-Aug-20 04:31N 46°05' W 122°56'0 0.0
2016-Aug-20 03:31N 46°05' W 122°56'0 0.0
2016-Aug-20 02:31N 46°05' W 122°56'0 0.0
2016-Aug-20 01:31N 46°05' W 122°56'0 0.0
2016-Aug-20 00:28N 46°05' W 122°56'0 0.0
2016-Aug-19 23:31N 46°05' W 122°56'0 0.0
2016-Aug-19 22:31N 46°05' W 122°56'2 1.9
2016-Aug-19 21:34N 46°07' W 122°58'2 1.6
2016-Aug-19 20:34N 46°08' W 122°60'1 0.7
2016-Aug-19 19:33N 46°08' W 123°00'4 3.8
2016-Aug-19 18:30N 46°05' W 122°56'0 0.0
2016-Aug-19 17:33N 46°05' W 122°56'0 0.0
2016-Aug-19 16:30N 46°05' W 122°56'0 0.0
2016-Aug-19 15:33N 46°05' W 122°56'0 0.0
2016-Aug-19 14:33N 46°05' W 122°56'0 0.0
2016-Aug-19 13:30N 46°05' W 122°56'0 0.0
2016-Aug-19 12:33N 46°05' W 122°56'0 0.0
2016-Aug-19 11:33N 46°05' W 122°56'0 0.0
2016-Aug-19 10:33N 46°05' W 122°56'0 0.0
2016-Aug-19 09:33N 46°05' W 122°56'0 0.0
2016-Aug-19 08:30N 46°05' W 122°56'0 0.0
2016-Aug-19 07:30N 46°05' W 122°56'0 0.0
2016-Aug-19 06:30N 46°05' W 122°56'0 0.0
2016-Aug-19 05:31N 46°05' W 122°56'0 0.0
2016-Aug-19 04:31N 46°05' W 122°56'0 0.0
2016-Aug-19 03:33N 46°05' W 122°56'1 0.6
2016-Aug-19 02:33N 46°06' W 122°56'0 0.1
2016-Aug-19 01:33N 46°06' W 122°56'1 0.5
2016-Aug-19 00:33N 46°05' W 122°56'0 0.0
2016-Aug-18 23:33N 46°05' W 122°56'0 0.0
2016-Aug-18 22:33N 46°05' W 122°56'0 0.0
2016-Aug-18 21:33N 46°05' W 122°56'0 0.0
2016-Aug-18 20:34N 46°05' W 122°56'0 0.0
2016-Aug-18 19:33N 46°05' W 122°56'  
Track history (hours):
 
Tides and Currents Weather Stations Pressure Air Temp Water Temp Dewpoint Dewpoint Depression Visibility Wind Speed Wind Dir Waves Ship Positions

Portland

Owner: Shaver Transportation Company, Portland, OR. More information available from US FCC via Universal Licensing System and Coast Guard Vessel Documentation Center.

Last reported at 2016-Aug-28 18:33 UTC. Time now 2016-Aug-28 19:00 UTC.
Position N 45°39' W 122°45'.

Length 27 m; draft 4 m.

Type: Towing. MMSI: 367315814.

Date/timePositionNaut miles runAvg speedWind from/ knotsBaromVisibWave heightAir tempDewpointWater temp
2016-Aug-28 18:33N 45°39' W 122°45'0 0.0
2016-Aug-28 17:33N 45°39' W 122°45'0 0.0
2016-Aug-28 16:34N 45°39' W 122°45'0 0.0
2016-Aug-28 15:33N 45°39' W 122°45'0 0.0
2016-Aug-28 14:33N 45°39' W 122°45'0 0.0
2016-Aug-28 13:33N 45°39' W 122°45'0 0.0
2016-Aug-28 12:33N 45°39' W 122°45'0 0.0
2016-Aug-28 11:33N 45°39' W 122°45'0 0.0
2016-Aug-28 10:33N 45°39' W 122°45'0 0.0
2016-Aug-28 09:33N 45°39' W 122°45'0 0.0
2016-Aug-28 08:33N 45°39' W 122°45'0 0.0
2016-Aug-28 07:33N 45°39' W 122°45'0 0.0
2016-Aug-28 06:33N 45°39' W 122°45'5 5.4
2016-Aug-28 05:34N 45°44' W 122°46'7 6.9
2016-Aug-28 04:33N 45°51' W 122°47'5 5.3
2016-Aug-28 03:33N 45°56' W 122°48'6 6.4
2016-Aug-28 02:33N 46°02' W 122°53'4 4.0
2016-Aug-28 01:33N 46°05' W 122°55'0 0.4
2016-Aug-28 00:33N 46°05' W 122°56'0 0.0
2016-Aug-27 23:33N 46°05' W 122°56'1 1.1
2016-Aug-27 22:34N 46°06' W 122°57'10 9.6
2016-Aug-27 21:33N 46°11' W 123°09'9 9.2
2016-Aug-27 20:33N 46°09' W 123°22'9 8.9
2016-Aug-27 19:34N 46°16' W 123°28'1010.1
2016-Aug-27 18:33N 46°14' W 123°43'7 6.8
2016-Aug-27 17:33N 46°12' W 123°52'0 0.3
2016-Aug-27 16:33N 46°11' W 123°52'0 0.0
2016-Aug-27 15:33N 46°11' W 123°52'0 0.2
2016-Aug-27 14:33N 46°11' W 123°52'7 6.6
2016-Aug-27 13:33N 46°14' W 123°43'1111.4
2016-Aug-27 12:33N 46°15' W 123°27'10 9.8
2016-Aug-27 11:33N 46°10' W 123°15'1111.4
2016-Aug-27 10:33N 46°07' W 122°59'7 6.5
2016-Aug-27 09:33N 46°02' W 122°53'1 0.6
2016-Aug-27 08:33N 46°01' W 122°52'3 2.6
2016-Aug-27 07:31N 45°59' W 122°50'0 0.1
2016-Aug-27 06:30N 45°59' W 122°50'3 1.5
2016-Aug-27 04:33N 46°02' W 122°52'5 4.4
2016-Aug-27 03:31N 46°05' W 122°56'0 0.0
2016-Aug-27 02:28N 46°05' W 122°56'0 0.0
2016-Aug-27 01:31N 46°05' W 122°56'4 4.1
2016-Aug-27 00:34N 46°02' W 122°53'1 0.6
2016-Aug-26 23:33N 46°02' W 122°52'0 0.2
2016-Aug-26 22:33N 46°02' W 122°52'5 4.6
2016-Aug-26 21:33N 46°05' W 122°56'0 0.0
2016-Aug-26 20:33N 46°05' W 122°56'0 0.0
2016-Aug-26 19:33N 46°05' W 122°56'0 0.0
2016-Aug-26 18:33N 46°05' W 122°56'0 0.0
2016-Aug-26 17:33N 46°05' W 122°56'0 0.0
2016-Aug-26 16:33N 46°05' W 122°56'0 0.0
2016-Aug-26 15:33N 46°05' W 122°56'0 0.0
2016-Aug-26 14:33N 46°05' W 122°56'0 0.0
2016-Aug-26 13:33N 46°05' W 122°56'0 0.0
2016-Aug-26 12:33N 46°05' W 122°56'0 0.0
2016-Aug-26 11:34N 46°05' W 122°56'0 0.0
2016-Aug-26 10:33N 46°05' W 122°56'0 0.0
2016-Aug-26 09:33N 46°05' W 122°56'0 0.0
2016-Aug-26 08:34N 46°05' W 122°56'0 0.0
2016-Aug-26 07:33N 46°05' W 122°56'0 0.0
2016-Aug-26 06:33N 46°05' W 122°56'0 0.0
2016-Aug-26 04:33N 46°05' W 122°56'0 0.0
2016-Aug-26 03:33N 46°05' W 122°56'0 0.0
2016-Aug-26 02:33N 46°05' W 122°56'0 0.0
2016-Aug-26 01:33N 46°05' W 122°56'0 0.0
2016-Aug-26 00:34N 46°05' W 122°56'0 0.0
2016-Aug-25 23:33N 46°05' W 122°56'0 0.0
2016-Aug-25 22:33N 46°05' W 122°56'0 0.0
2016-Aug-25 21:34N 46°05' W 122°56'0 0.0
2016-Aug-25 20:34N 46°05' W 122°56'0 0.0
2016-Aug-25 19:33N 46°05' W 122°56'1 1.1
2016-Aug-25 18:34N 46°06' W 122°57'0 0.0
2016-Aug-25 17:33N 46°06' W 122°57'1 1.0
2016-Aug-25 16:33N 46°05' W 122°56'4 4.4
2016-Aug-25 15:33N 46°02' W 122°53'0 0.0
2016-Aug-25 14:33N 46°02' W 122°53'0 0.1
2016-Aug-25 13:33N 46°02' W 122°52'1 0.8
2016-Aug-25 12:33N 46°02' W 122°53'1 0.7
2016-Aug-25 11:34N 46°02' W 122°53'5 4.8
2016-Aug-25 10:33N 46°06' W 122°56'0 0.3
2016-Aug-25 09:33N 46°06' W 122°57'0 0.2
2016-Aug-25 08:34N 46°06' W 122°56'3 3.0
2016-Aug-25 07:34N 46°04' W 122°53'2 2.2
2016-Aug-25 06:33N 46°02' W 122°52'0 0.0
2016-Aug-25 04:33N 46°02' W 122°52'0 0.3
2016-Aug-25 03:34N 46°02' W 122°53'1 1.4
2016-Aug-25 02:33N 46°01' W 122°51'2 1.8
2016-Aug-25 01:34N 45°59' W 122°50'0 0.2
2016-Aug-25 00:33N 45°59' W 122°50'0 0.1
2016-Aug-24 23:33N 45°59' W 122°50'0 0.1
2016-Aug-24 22:33N 45°59' W 122°50'4 4.1
2016-Aug-24 21:34N 45°55' W 122°48'1313.2
2016-Aug-24 20:33N 45°42' W 122°46'8 8.5
2016-Aug-24 19:33N 45°34' W 122°44'0 0.0
2016-Aug-24 18:33N 45°34' W 122°44'0 0.0
2016-Aug-24 17:33N 45°34' W 122°44'0 0.0
2016-Aug-24 16:33N 45°34' W 122°44'5 4.6
2016-Aug-24 15:33N 45°38' W 122°43'1 0.5
2016-Aug-24 14:33N 45°39' W 122°43'5 4.6
2016-Aug-24 13:33N 45°34' W 122°44'0 0.4
2016-Aug-24 12:33N 45°34' W 122°44'4 3.7
2016-Aug-24 11:33N 45°36' W 122°47'9 8.5
2016-Aug-24 10:33N 45°45' W 122°46'8 8.3
2016-Aug-24 09:33N 45°53' W 122°48'9 9.3
2016-Aug-24 08:33N 46°02' W 122°53'5 5.4
2016-Aug-24 07:33N 46°06' W 122°57'1 0.7
2016-Aug-24 06:33N 46°06' W 122°58'2 0.9
2016-Aug-24 04:33N 46°05' W 122°56'0 0.0
2016-Aug-24 03:33N 46°05' W 122°56'0 0.0
2016-Aug-24 02:33N 46°05' W 122°56'0 0.0
2016-Aug-24 01:33N 46°05' W 122°56'0 0.0
2016-Aug-24 00:32N 46°05' W 122°56'0 0.0
2016-Aug-23 23:33N 46°05' W 122°56'0 0.0
2016-Aug-23 22:33N 46°05' W 122°56'0 0.0
2016-Aug-23 21:33N 46°05' W 122°56'2 1.7
2016-Aug-23 20:33N 46°07' W 122°58'0 0.0
2016-Aug-23 19:33N 46°07' W 122°58'0 0.0
2016-Aug-23 18:33N 46°07' W 122°58'1 1.2
2016-Aug-23 17:33N 46°06' W 122°56'1 0.5
2016-Aug-23 16:32N 46°05' W 122°56'0 0.0
2016-Aug-23 15:26N 46°05' W 122°56'0 0.0
2016-Aug-23 14:26N 46°05' W 122°56'0 0.0
2016-Aug-23 13:32N 46°05' W 122°56'0 0.0
2016-Aug-23 12:32N 46°05' W 122°56'0 0.0
2016-Aug-23 11:32N 46°05' W 122°56'0 0.0
2016-Aug-23 10:32N 46°05' W 122°56'1 0.5
2016-Aug-23 09:33N 46°06' W 122°57'3 2.8
2016-Aug-23 08:33N 46°08' W 122°59'3 3.3
2016-Aug-23 07:33N 46°05' W 122°56'0 0.0
2016-Aug-23 06:32N 46°05' W 122°56'0 0.0
2016-Aug-23 05:29N 46°05' W 122°56'1 0.6
2016-Aug-23 04:33N 46°05' W 122°55'1211.9
2016-Aug-23 03:33N 45°54' W 122°49'1212.1
2016-Aug-23 02:34N 45°42' W 122°46'3 3.2
2016-Aug-23 01:33N 45°39' W 122°45'3 2.9
2016-Aug-23 00:33N 45°38' W 122°42'3 2.5
2016-Aug-22 23:31N 45°39' W 122°45'0 0.0
2016-Aug-22 22:28N 45°39' W 122°45'2 1.7
2016-Aug-22 21:33N 45°38' W 122°43'8 7.9
2016-Aug-22 20:33N 45°46' W 122°46'9 9.2
2016-Aug-22 19:33N 45°55' W 122°49'10 9.9
2016-Aug-22 18:33N 46°04' W 122°53'2 2.1
2016-Aug-22 17:34N 46°05' W 122°56'0 0.0
2016-Aug-22 16:34N 46°05' W 122°56'0 0.0
2016-Aug-22 15:34N 46°05' W 122°56'0 0.0
2016-Aug-22 14:34N 46°05' W 122°56'0 0.0
2016-Aug-22 13:34N 46°05' W 122°56'2 1.8
2016-Aug-22 12:34N 46°05' W 122°54'2 2.0
2016-Aug-22 11:33N 46°03' W 122°53'4 3.7
2016-Aug-22 10:33N 46°05' W 122°56'0 0.0
2016-Aug-22 09:33N 46°05' W 122°56'0 0.0
2016-Aug-22 08:34N 46°05' W 122°56'0 0.0
2016-Aug-22 07:34N 46°05' W 122°56'0 0.0
2016-Aug-22 06:34N 46°05' W 122°56'0 0.0
2016-Aug-22 05:33N 46°05' W 122°56'0 0.0
2016-Aug-22 04:34N 46°05' W 122°56'0 0.0
2016-Aug-22 03:34N 46°05' W 122°56'0 0.0
2016-Aug-22 02:33N 46°05' W 122°56'0 0.0
2016-Aug-22 01:34N 46°05' W 122°56'0 0.0
2016-Aug-22 00:34N 46°05' W 122°56'0 0.0
2016-Aug-21 23:33N 46°05' W 122°56'0 0.0
2016-Aug-21 22:34N 46°05' W 122°56'0 0.0
2016-Aug-21 21:34N 46°05' W 122°56'0 0.0
2016-Aug-21 20:34N 46°05' W 122°56'0 0.0
2016-Aug-21 19:34N 46°05' W 122°56'0 0.0
2016-Aug-21 18:34N 46°05' W 122°56'1 1.5
2016-Aug-21 17:34N 46°06' W 122°58'1 1.4
2016-Aug-21 16:31N 46°05' W 122°56'0 0.0
2016-Aug-21 15:28N 46°05' W 122°56'0 0.0
2016-Aug-21 14:28N 46°05' W 122°56'0 0.0
2016-Aug-21 13:28N 46°05' W 122°56'0 0.0
2016-Aug-21 12:31N 46°05' W 122°56'0 0.0
2016-Aug-21 11:31N 46°05' W 122°56'0 0.0
2016-Aug-21 10:28N 46°05' W 122°56'0 0.0
2016-Aug-21 09:28N 46°05' W 122°56'0 0.3
2016-Aug-21 08:33N 46°06' W 122°56'1 0.7
2016-Aug-21 07:33N 46°06' W 122°57'1 0.9
2016-Aug-21 06:31N 46°05' W 122°56'0 0.0
2016-Aug-21 05:31N 46°05' W 122°56'0 0.0
2016-Aug-21 04:31N 46°05' W 122°56'0 0.0
2016-Aug-21 03:31N 46°05' W 122°56'0 0.0
2016-Aug-21 02:31N 46°05' W 122°56'0 0.0
2016-Aug-21 01:31N 46°05' W 122°56'0 0.0
2016-Aug-21 00:31N 46°05' W 122°56'0 0.0
2016-Aug-20 23:31N 46°05' W 122°56'1 1.1
2016-Aug-20 22:32N 46°06' W 122°57'1 1.1
2016-Aug-20 21:33N 46°05' W 122°56'0 0.0
2016-Aug-20 20:33N 46°05' W 122°56'2 2.0
2016-Aug-20 19:30N 46°07' W 122°58'2 2.1
2016-Aug-20 18:31N 46°05' W 122°56'0 0.0
2016-Aug-20 17:25N 46°05' W 122°56'0 0.0
2016-Aug-20 16:31N 46°05' W 122°56'0 0.0
2016-Aug-20 15:28N 46°05' W 122°56'0 0.0
2016-Aug-20 14:28N 46°05' W 122°56'0 0.0
2016-Aug-20 13:31N 46°05' W 122°56'0 0.0
2016-Aug-20 12:28N 46°05' W 122°56'0 0.0
2016-Aug-20 11:22N 46°05' W 122°56'1 1.3
2016-Aug-20 10:34N 46°06' W 122°57'1 1.0
2016-Aug-20 09:34N 46°07' W 122°58'0 0.0
2016-Aug-20 08:33N 46°07' W 122°58'1 0.7
2016-Aug-20 07:33N 46°07' W 122°59'3 2.7
2016-Aug-20 06:31N 46°05' W 122°56'0 0.0
2016-Aug-20 05:31N 46°05' W 122°56'0 0.0
2016-Aug-20 04:31N 46°05' W 122°56'0 0.0
2016-Aug-20 03:31N 46°05' W 122°56'0 0.0
2016-Aug-20 02:31N 46°05' W 122°56'0 0.0
2016-Aug-20 01:31N 46°05' W 122°56'0 0.0
2016-Aug-20 00:28N 46°05' W 122°56'0 0.0
2016-Aug-19 23:31N 46°05' W 122°56'0 0.0
2016-Aug-19 22:31N 46°05' W 122°56'2 1.9
2016-Aug-19 21:34N 46°07' W 122°58'2 1.6
2016-Aug-19 20:34N 46°08' W 122°60'1 0.7
2016-Aug-19 19:33N 46°08' W 123°00'4 3.8
2016-Aug-19 18:30N 46°05' W 122°56'0 0.0
2016-Aug-19 17:33N 46°05' W 122°56'0 0.0
2016-Aug-19 16:30N 46°05' W 122°56'0 0.0
2016-Aug-19 15:33N 46°05' W 122°56'0 0.0
2016-Aug-19 14:33N 46°05' W 122°56'0 0.0
2016-Aug-19 13:30N 46°05' W 122°56'0 0.0
2016-Aug-19 12:33N 46°05' W 122°56'0 0.0
2016-Aug-19 11:33N 46°05' W 122°56'0 0.0
2016-Aug-19 10:33N 46°05' W 122°56'0 0.0
2016-Aug-19 09:33N 46°05' W 122°56'0 0.0
2016-Aug-19 08:30N 46°05' W 122°56'0 0.0
2016-Aug-19 07:30N 46°05' W 122°56'0 0.0
2016-Aug-19 06:30N 46°05' W 122°56'0 0.0
2016-Aug-19 05:31N 46°05' W 122°56'0 0.0
2016-Aug-19 04:31N 46°05' W 122°56'0 0.0
2016-Aug-19 03:33N 46°05' W 122°56'1 0.6
2016-Aug-19 02:33N 46°06' W 122°56'0 0.1
2016-Aug-19 01:33N 46°06' W 122°56'1 0.5
2016-Aug-19 00:33N 46°05' W 122°56'0 0.0
2016-Aug-18 23:33N 46°05' W 122°56'0 0.0
2016-Aug-18 22:33N 46°05' W 122°56'0 0.0
2016-Aug-18 21:33N 46°05' W 122°56'0 0.0
2016-Aug-18 20:34N 46°05' W 122°56'0 0.0
2016-Aug-18 19:33N 46°05' W 122°56'  

Dump ship's entire track history